Terminal Aerodrome Forecast
Issued by NWS

Home | Current Version | Previous Version | Text Only | Print | Product List | Glossary On
Versions: 1 2 3 4 5 6 7 8 9 10 11 12 13 14 15 16 17 18 19
000
FTUS43 KMPX 301735
TAFAXN
TAF
KAXN 301735Z 3018/3118 00000KT P6SM VCSH SCT050 BKN090
     FM310100 13008KT P6SM VCTS BKN060CB
      TEMPO 3102/3104 2SM TSRA OVC045CB
     FM310600 14010KT 6SM -SHRA VCTS SCT035CB OVC050
     FM310900 16008KT P6SM VCSH OVC035
     FM311200 22010KT P6SM SCT020 BKN035=

USA.gov is the U.S. government's official web portal to all federal, state and local government web resources and services.